Terminal Aerodrome Forecast
Issued by NWS Goodland, KS

Home | Current Version | Previous Version | Text Only | Print | Product List | Glossary On
Versions: 1 2 3 4 5 6 7 8 9 10 11 12 13 14 15 16 17 18 19 20 21 22 23 24 25 26 27
000
FTUS43 KGLD 291738 CCA
TAFGLD
TAF COR
KGLD 291738Z 2918/3018 02012KT P6SM FEW028 SCT035
     FM292200 36014G20KT P6SM VCTS BKN060CB
     FM300200 02012KT P6SM OVC020
     FM300500 35011KT P6SM OVC015
     FM300900 36009KT P6SM OVC010
     FM301400 36008KT P6SM SCT025=

USA.gov is the U.S. government's official web portal to all federal, state and local government web resources and services.